Time;durP1;ratioP1;P1;durP2;ratioP2;P2;SDS_P1;SDS_P2;PMS_P1;PMS_P2;Temp;Humidity;BMP_temperature;BMP_pressure;BME280_temperature;BME280_humidity;BME280_pressure;Samples;Min_cycle;Max_cycle;Signal;HPM_P1;HPM_P2
2023/05/03 00:02:43;;;;;;;17.10;9.47;;;;;9.50;97040.00;;;;8246374;28;20711;-67
2023/05/03 00:06:50;;;;;;;12.93;8.55;;;;;9.50;97035.00;;;;8251586;28;20200;-67
2023/05/03 00:10:59;;;;;;;15.13;8.20;;;;;9.50;97034.00;;;;8257661;28;20301;-67
2023/05/03 00:15:08;;;;;;;13.97;8.40;;;;;9.50;97041.00;;;;8249910;28;20317;-67
2023/05/03 00:19:11;;;;;;;13.32;8.88;;;;;9.40;97033.00;;;;8258919;28;20210;-67
2023/05/03 00:23:32;;;;;;;12.80;8.30;;;;;9.40;97035.00;;;;8253136;28;20269;-67
2023/05/03 00:27:37;;;;;;;12.43;8.20;;;;;9.30;97034.00;;;;8250161;28;20261;-67
2023/05/03 00:31:47;;;;;;;14.48;8.35;;;;;9.30;97025.00;;;;8255903;28;20787;-67
2023/05/03 00:35:53;;;;;;;15.50;8.37;;;;;9.30;97036.00;;;;8263653;28;20530;-67
2023/05/03 00:39:58;;;;;;;17.80;9.37;;;;;9.30;97033.00;;;;8260518;28;20249;-67
2023/05/03 00:44:02;;;;;;;11.88;7.93;;;;;9.30;97034.00;;;;8252525;28;20201;-67
2023/05/03 00:48:07;;;;;;;14.70;8.35;;;;;9.20;97033.00;;;;8256528;28;20660;-67
2023/05/03 00:52:11;;;;;;;14.43;8.53;;;;;9.20;97025.00;;;;8245875;28;20206;-68
2023/05/03 00:56:19;;;;;;;18.87;8.70;;;;;9.20;97011.00;;;;8256811;28;20556;-67
2023/05/03 01:00:25;;;;;;;11.45;8.18;;;;;9.10;97025.00;;;;8247698;28;21337;-67
2023/05/03 01:04:32;;;;;;;14.03;9.17;;;;;9.10;97031.00;;;;8255474;28;20696;-67
2023/05/03 01:08:39;;;;;;;14.30;9.43;;;;;9.10;97019.00;;;;8256197;28;20211;-67
2023/05/03 01:12:53;;;;;;;16.40;9.57;;;;;9.10;97025.00;;;;8255934;28;20565;-68
2023/05/03 01:17:02;;;;;;;17.63;8.77;;;;;9.10;97025.00;;;;8255363;28;20549;-67
2023/05/03 01:21:08;;;;;;;24.33;9.30;;;;;9.00;97020.00;;;;8257162;28;20577;-66
2023/05/03 01:25:26;;;;;;;16.83;9.77;;;;;9.00;97021.00;;;;8248359;28;20199;-66
2023/05/03 01:29:35;;;;;;;22.23;10.63;;;;;9.00;97022.00;;;;8268319;28;21190;-66
2023/05/03 01:33:47;;;;;;;20.27;9.73;;;;;9.00;97017.00;;;;8249257;28;20202;-66
2023/05/03 01:37:51;;;;;;;20.03;10.27;;;;;8.90;97017.00;;;;8252298;28;20198;-66
2023/05/03 01:41:57;;;;;;;18.00;8.83;;;;;8.90;97018.00;;;;8250291;28;20231;-66
2023/05/03 01:46:00;;;;;;;22.97;9.77;;;;;8.90;97017.00;;;;8249134;28;20279;-67
2023/05/03 01:50:06;;;;;;;20.30;10.03;;;;;8.90;97008.00;;;;8256883;28;20202;-66
2023/05/03 01:54:10;;;;;;;13.60;8.47;;;;;8.80;97022.00;;;;8256697;28;20226;-68
2023/05/03 01:58:15;;;;;;;16.80;9.77;;;;;8.80;97020.00;;;;8245960;28;20203;-67
2023/05/03 02:02:19;;;;;;;19.33;9.50;;;;;8.80;97010.00;;;;8255361;28;21028;-68
2023/05/03 02:06:24;;;;;;;16.43;8.10;;;;;8.80;97012.00;;;;8252207;28;20534;-67
2023/05/03 02:10:31;;;;;;;18.37;7.70;;;;;8.80;97011.00;;;;8253809;28;20230;-66
2023/05/03 02:14:38;;;;;;;20.80;10.40;;;;;8.80;97010.00;;;;8235274;28;20881;-67
2023/05/03 02:18:43;;;;;;;22.03;10.30;;;;;8.90;97013.00;;;;8249740;28;20641;-66
2023/05/03 02:22:48;;;;;;;17.57;9.93;;;;;8.80;97022.00;;;;8249129;28;20268;-67
2023/05/03 02:26:51;;;;;;;20.10;9.90;;;;;8.90;97021.00;;;;8248585;28;20198;-67
2023/05/03 02:30:56;;;;;;;20.50;10.47;;;;;8.90;97010.00;;;;8252210;28;20202;-68
2023/05/03 02:34:59;;;;;;;20.10;11.53;;;;;8.90;97013.00;;;;8253510;28;20829;-68
2023/05/03 02:39:07;;;;;;;24.43;10.90;;;;;8.80;97017.00;;;;8250279;28;20201;-67
2023/05/03 02:43:13;;;;;;;22.57;9.93;;;;;8.80;97016.00;;;;8245814;28;20226;-67
2023/05/03 02:47:20;;;;;;;20.47;10.43;;;;;8.80;97017.00;;;;8250491;28;20290;-67
2023/05/03 02:51:26;;;;;;;20.30;9.47;;;;;8.80;97017.00;;;;8249768;28;20210;-67
2023/05/03 02:55:31;;;;;;;19.00;10.03;;;;;8.90;97023.00;;;;8249191;28;20213;-66
2023/05/03 02:59:36;;;;;;;24.33;10.70;;;;;9.00;97003.00;;;;8253061;28;20285;-67
2023/05/03 03:03:41;;;;;;;20.60;10.87;;;;;9.00;97016.00;;;;8303924;22;20237;-67
2023/05/03 03:07:45;;;;;;;19.03;9.07;;;;;9.00;97007.00;;;;8267366;28;20190;-68
2023/05/03 03:11:48;;;;;;;22.30;10.87;;;;;9.00;97019.00;;;;8271380;28;20203;-67
2023/05/03 03:15:51;;;;;;;23.90;10.77;;;;;9.10;97015.00;;;;8272780;28;20203;-67
2023/05/03 03:19:57;;;;;;;21.37;10.73;;;;;9.10;97023.00;;;;8269102;28;20195;-67
2023/05/03 03:24:00;;;;;;;19.97;10.27;;;;;9.20;97024.00;;;;8271361;28;20228;-67
2023/05/03 03:28:03;;;;;;;20.00;9.17;;;;;9.10;97022.00;;;;8272774;28;20199;-67
2023/05/03 03:32:10;;;;;;;21.97;11.20;;;;;9.10;97023.00;;;;8273275;28;20208;-68
2023/05/03 03:36:15;;;;;;;21.47;10.37;;;;;9.00;97012.00;;;;8280065;28;20190;-68
2023/05/03 03:40:18;;;;;;;21.90;10.93;;;;;8.90;97022.00;;;;8279938;28;20635;-67
2023/05/03 03:44:35;;;;;;;21.50;10.97;;;;;8.90;97022.00;;;;8278979;28;20227;-67
2023/05/03 03:48:44;;;;;;;22.70;11.77;;;;;8.80;97026.00;;;;8279227;28;20202;-68
2023/05/03 03:52:49;;;;;;;23.87;11.63;;;;;8.90;97031.00;;;;8286503;28;20202;-67
2023/05/03 03:56:55;;;;;;;25.43;11.67;;;;;8.80;97032.00;;;;8280927;28;20656;-66
2023/05/03 04:00:59;;;;;;;20.37;11.60;;;;;8.80;97034.00;;;;8276095;28;20194;-67
2023/05/03 04:05:02;;;;;;;24.40;10.83;;;;;8.70;97032.00;;;;8258818;28;20231;-67
2023/05/03 04:09:09;;;;;;;27.63;13.57;;;;;8.80;97038.00;;;;8243587;28;20202;-67
2023/05/03 04:13:12;;;;;;;28.07;11.70;;;;;8.70;97039.00;;;;8244027;28;20203;-68
2023/05/03 04:17:18;;;;;;;21.77;11.63;;;;;8.70;97035.00;;;;8237151;28;20270;-68
2023/05/03 04:21:28;;;;;;;23.00;12.10;;;;;8.70;97042.00;;;;8248558;28;20385;-67
2023/05/03 04:25:35;;;;;;;21.80;12.20;;;;;8.70;97045.00;;;;8249362;28;20207;-66
2023/05/03 04:29:39;;;;;;;25.97;12.50;;;;;8.70;97044.00;;;;8243464;28;20206;-67
2023/05/03 04:33:42;;;;;;;21.90;12.60;;;;;8.80;97059.00;;;;8253077;28;20248;-67
2023/05/03 04:37:45;;;;;;;24.83;12.50;;;;;8.80;97063.00;;;;8254329;28;20222;-67
2023/05/03 04:41:53;;;;;;;24.40;12.20;;;;;8.80;97057.00;;;;8251981;28;20207;-67
2023/05/03 04:45:59;;;;;;;32.40;13.33;;;;;8.90;97058.00;;;;8254080;28;20290;-66
2023/05/03 04:50:03;;;;;;;24.47;12.53;;;;;8.90;97058.00;;;;8248979;28;20291;-68
2023/05/03 04:54:09;;;;;;;23.60;13.30;;;;;9.00;97066.00;;;;8251799;28;20195;-67
2023/05/03 04:58:21;;;;;;;25.30;12.33;;;;;9.10;97073.00;;;;8251045;28;20567;-67
2023/05/03 05:02:27;;;;;;;25.00;12.53;;;;;9.20;97068.00;;;;8255745;28;20715;-68
2023/05/03 05:06:31;;;;;;;20.67;11.77;;;;;9.20;97073.00;;;;8256896;28;20214;-67
2023/05/03 05:10:37;;;;;;;24.27;13.10;;;;;9.20;97076.00;;;;8254011;28;20317;-67
2023/05/03 05:14:42;;;;;;;25.23;12.33;;;;;9.30;97083.00;;;;8253425;28;20191;-67
2023/05/03 05:18:47;;;;;;;31.70;13.35;;;;;9.30;97080.00;;;;8253548;28;20202;-67
2023/05/03 05:22:50;;;;;;;22.97;12.63;;;;;9.30;97080.00;;;;8247397;28;20987;-67
2023/05/03 05:26:56;;;;;;;23.23;12.40;;;;;9.40;97075.00;;;;8245688;28;20757;-67
2023/05/03 05:31:00;;;;;;;27.15;12.35;;;;;9.60;97082.00;;;;8252153;28;20805;-67
2023/05/03 05:35:09;;;;;;;27.63;13.50;;;;;9.70;97085.00;;;;8240549;28;20795;-67
2023/05/03 05:39:16;;;;;;;22.73;12.97;;;;;9.80;97086.00;;;;8251246;28;20199;-68
2023/05/03 05:43:19;;;;;;;26.35;13.07;;;;;10.00;97091.00;;;;8251822;28;20326;-67
2023/05/03 05:47:33;;;;;;;26.40;13.70;;;;;10.10;97097.00;;;;8252791;28;20194;-68
2023/05/03 05:51:38;;;;;;;26.80;12.80;;;;;10.30;97100.00;;;;8250942;28;20199;-68
2023/05/03 05:55:42;;;;;;;24.03;12.10;;;;;10.40;97097.00;;;;8248689;28;20199;-68
2023/05/03 05:59:46;;;;;;;23.40;13.05;;;;;10.60;97107.00;;;;8246534;28;20199;-67
2023/05/03 06:03:50;;;;;;;27.95;13.82;;;;;10.70;97100.00;;;;8247887;28;20230;-67
2023/05/03 06:07:58;;;;;;;26.90;13.95;;;;;10.80;97108.00;;;;8250563;28;20187;-67
2023/05/03 06:12:02;;;;;;;26.27;13.13;;;;;10.90;97110.00;;;;8252156;28;20198;-68
2023/05/03 06:16:09;;;;;;;22.38;12.20;;;;;11.10;97117.00;;;;8249647;28;20206;-68
2023/05/03 06:20:23;;;;;;;22.45;12.63;;;;;11.20;97121.00;;;;8248042;28;20199;-67
2023/05/03 06:24:29;;;;;;;23.90;12.77;;;;;11.40;97124.00;;;;8252102;28;20219;-68
2023/05/03 06:28:33;;;;;;;26.08;14.52;;;;;11.60;97130.00;;;;8254102;28;20199;-67
2023/05/03 06:32:36;;;;;;;27.08;13.25;;;;;11.90;97133.00;;;;8252235;28;20707;-68
2023/05/03 06:36:40;;;;;;;20.73;12.23;;;;;12.20;97123.00;;;;8254210;28;20313;-68
2023/05/03 06:40:45;;;;;;;26.85;13.57;;;;;12.30;97127.00;;;;8247953;28;20234;-68
2023/05/03 06:44:48;;;;;;;23.48;13.32;;;;;12.60;97128.00;;;;8248722;28;20233;-68
2023/05/03 06:48:54;;;;;;;26.13;13.75;;;;;12.90;97139.00;;;;8248083;28;20198;-68
2023/05/03 06:52:59;;;;;;;23.80;13.00;;;;;13.30;97133.00;;;;8252970;28;20240;-68
2023/05/03 06:57:03;;;;;;;21.45;13.60;;;;;13.50;97137.00;;;;8250533;28;20669;-68
2023/05/03 07:01:06;;;;;;;20.38;12.73;;;;;13.60;97133.00;;;;8247141;28;20202;-68
2023/05/03 07:05:10;;;;;;;27.23;13.38;;;;;13.80;97137.00;;;;8254174;28;20295;-68
2023/05/03 07:09:17;;;;;;;20.40;12.63;;;;;14.10;97131.00;;;;8249724;28;20534;-68
2023/05/03 07:13:30;;;;;;;22.52;13.23;;;;;14.10;97131.00;;;;8252670;28;20202;-68
2023/05/03 07:17:34;;;;;;;20.60;12.60;;;;;14.00;97129.00;;;;8251692;28;20193;-68
2023/05/03 07:21:39;;;;;;;22.73;12.88;;;;;14.00;97121.00;;;;8252924;28;20627;-68
2023/05/03 07:25:52;;;;;;;25.80;13.18;;;;;14.10;97120.00;;;;8254384;28;20682;-68
2023/05/03 07:29:56;;;;;;;19.67;12.82;;;;;14.40;97114.00;;;;8256751;28;20202;-68
2023/05/03 07:34:01;;;;;;;19.80;12.50;;;;;15.00;97109.00;;;;8256085;28;20197;-69
2023/05/03 07:38:04;;;;;;;24.90;13.38;;;;;15.20;97121.00;;;;8257354;28;20217;-69
2023/05/03 07:42:09;;;;;;;25.70;13.20;;;;;15.40;97113.00;;;;8257494;28;20682;-68
2023/05/03 07:46:16;;;;;;;20.10;12.90;;;;;15.80;97116.00;;;;8259289;28;20235;-69
2023/05/03 07:50:19;;;;;;;18.90;12.13;;;;;16.30;97124.00;;;;8251439;28;20227;-68
2023/05/03 07:54:22;;;;;;;19.75;12.48;;;;;16.80;97109.00;;;;8259281;28;20202;-69
2023/05/03 07:58:30;;;;;;;19.40;11.77;;;;;17.40;97112.00;;;;8257218;28;20641;-68
2023/05/03 08:02:42;;;;;;;20.98;12.52;;;;;18.10;97112.00;;;;8276643;28;20234;-69
2023/05/03 08:06:48;;;;;;;16.38;11.18;;;;;17.90;97120.00;;;;8249025;28;20254;-69
2023/05/03 08:10:52;;;;;;;17.58;11.43;;;;;17.50;97116.00;;;;8252168;28;20757;-69
2023/05/03 08:14:57;;;;;;;19.17;11.20;;;;;17.60;97117.00;;;;8243813;28;20206;-69
2023/05/03 08:19:06;;;;;;;21.25;11.93;;;;;17.70;97117.00;;;;8254657;28;20253;-69
2023/05/03 08:23:10;;;;;;;16.83;10.68;;;;;18.30;97125.00;;;;8259906;28;20195;-69
2023/05/03 08:27:16;;;;;;;16.50;9.90;;;;;18.20;97131.00;;;;8251705;28;20637;-69
2023/05/03 08:31:24;;;;;;;18.40;11.38;;;;;18.20;97123.00;;;;8252507;28;20253;-69
2023/05/03 08:35:33;;;;;;;16.80;10.57;;;;;18.30;97121.00;;;;8263264;28;20210;-68
2023/05/03 08:39:36;;;;;;;14.43;9.98;;;;;19.00;97119.00;;;;8253698;28;20986;-69
2023/05/03 08:43:45;;;;;;;16.15;11.18;;;;;18.90;97117.00;;;;8257758;28;20289;-69
2023/05/03 08:47:54;;;;;;;14.93;10.05;;;;;19.30;97117.00;;;;8258281;28;20591;-69
2023/05/03 08:52:02;;;;;;;21.00;11.15;;;;;19.90;97123.00;;;;8255907;28;20199;-68
2023/05/03 08:56:08;;;;;;;16.33;10.77;;;;;19.60;97122.00;;;;8260586;28;20207;-69
2023/05/03 09:00:12;;;;;;;15.65;10.93;;;;;19.50;97119.00;;;;8254704;28;20930;-69
2023/05/03 09:04:17;;;;;;;19.95;9.60;;;;;19.50;97123.00;;;;8252459;28;20249;-69
2023/05/03 09:08:21;;;;;;;14.70;9.57;;;;;18.80;97126.00;;;;8255729;28;20842;-69
2023/05/03 09:12:39;;;;;;;14.25;9.52;;;;;19.20;97128.00;;;;8254838;28;20198;-69
2023/05/03 09:16:46;;;;;;;14.07;10.32;;;;;19.20;97132.00;;;;8251041;28;20640;-69
2023/05/03 09:20:51;;;;;;;13.75;10.07;;;;;19.30;97125.00;;;;8254436;28;20199;-68
2023/05/03 09:24:56;;;;;;;15.90;9.07;;;;;18.70;97136.00;;;;8255119;28;20806;-69
2023/05/03 09:29:02;;;;;;;16.88;9.90;;;;;18.70;97136.00;;;;8253446;28;20678;-69
2023/05/03 09:33:06;;;;;;;15.38;8.93;;;;;19.50;97140.00;;;;8248782;28;20206;-69
2023/05/03 09:37:12;;;;;;;14.10;9.30;;;;;19.80;97133.00;;;;8262661;28;20207;-70
2023/05/03 09:41:27;;;;;;;13.48;9.73;;;;;20.80;97132.00;;;;8247618;28;20213;-69
2023/05/03 09:45:34;;;;;;;16.90;10.60;;;;;21.00;97132.00;;;;8253198;28;20297;-70
2023/05/03 09:49:38;;;;;;;15.95;9.60;;;;;19.90;97129.00;;;;8248256;28;20237;-70
2023/05/03 09:53:42;;;;;;;17.77;10.07;;;;;19.40;97128.00;;;;8254400;28;20194;-70
2023/05/03 09:57:49;;;;;;;23.73;10.30;;;;;19.50;97133.00;;;;8256118;28;20781;-70
2023/05/03 10:01:56;;;;;;;13.68;9.18;;;;;18.50;97127.00;;;;8249934;28;20199;-69
2023/05/03 10:06:03;;;;;;;13.73;8.40;;;;;18.00;97119.00;;;;8269310;28;20277;-69
2023/05/03 10:10:10;;;;;;;12.02;7.97;;;;;17.70;97122.00;;;;8253393;28;20649;-69
2023/05/03 10:14:13;;;;;;;14.05;8.45;;;;;17.80;97121.00;;;;8249144;28;20734;-69
2023/05/03 10:18:18;;;;;;;10.30;8.00;;;;;17.80;97112.00;;;;8268189;28;20298;-69
2023/05/03 10:22:22;;;;;;;13.80;9.10;;;;;17.90;97113.00;;;;8252932;28;20281;-69
2023/05/03 10:26:26;;;;;;;17.77;9.70;;;;;18.60;97109.00;;;;8254944;28;20222;-69
2023/05/03 10:30:33;;;;;;;11.73;7.88;;;;;19.80;97105.00;;;;8253970;28;20835;-69
2023/05/03 10:34:38;;;;;;;11.35;8.20;;;;;20.30;97108.00;;;;8252607;28;20250;-69
2023/05/03 10:38:43;;;;;;;14.40;7.88;;;;;20.10;97110.00;;;;8252674;28;20270;-69
2023/05/03 10:42:51;;;;;;;13.80;8.10;;;;;20.90;97111.00;;;;8249732;28;20241;-69
2023/05/03 10:46:57;;;;;;;12.35;7.03;;;;;21.60;97112.00;;;;8252666;28;20230;-70
2023/05/03 10:51:35;;;;;;;13.20;7.57;;;;;22.10;97101.00;;;;8247633;28;20209;-69
2023/05/03 10:56:00;;;;;;;10.63;6.47;;;;;22.70;97105.00;;;;8250816;28;20237;-69
2023/05/03 11:00:09;;;;;;;7.70;6.90;;;;;23.90;97094.00;;;;8251312;28;20260;-70
2023/05/03 11:04:20;;;;;;;9.70;7.20;;;;;23.70;97093.00;;;;8255366;28;20693;-69
2023/05/03 11:08:25;;;;;;;9.82;6.85;;;;;24.90;97085.00;;;;8253948;28;20480;-69
2023/05/03 11:12:28;;;;;;;11.82;7.22;;;;;25.60;97094.00;;;;8243062;28;20210;-70
2023/05/03 11:16:33;;;;;;;12.90;7.53;;;;;26.20;97095.00;;;;8246870;28;20199;-68
2023/05/03 11:20:37;;;;;;;9.43;7.18;;;;;27.10;97104.00;;;;8252423;28;20207;-68
2023/05/03 11:24:40;;;;;;;8.10;6.30;;;;;26.80;97092.00;;;;8248004;28;20812;-68
2023/05/03 11:28:45;;;;;;;7.03;6.13;;;;;26.10;97080.00;;;;8248322;28;20199;-68
2023/05/03 11:32:52;;;;;;;9.85;7.00;;;;;24.80;97081.00;;;;8249676;28;20256;-68
2023/05/03 11:36:55;;;;;;;10.40;6.68;;;;;23.10;97082.00;;;;8249663;28;20303;-69
2023/05/03 11:40:58;;;;;;;8.55;6.38;;;;;22.00;97082.00;;;;8250423;28;20451;-68
2023/05/03 11:45:08;;;;;;;11.60;6.70;;;;;21.40;97073.00;;;;8249251;28;20227;-68
2023/05/03 11:49:19;;;;;;;11.35;7.22;;;;;21.40;97077.00;;;;8249806;28;20195;-67
2023/05/03 11:53:26;;;;;;;8.27;6.78;;;;;21.70;97079.00;;;;8244042;28;20202;-68
2023/05/03 11:57:31;;;;;;;11.25;6.93;;;;;23.10;97078.00;;;;8252149;28;20195;-69
2023/05/03 12:01:35;;;;;;;10.93;6.53;;;;;23.40;97069.00;;;;8253944;28;20272;-69
2023/05/03 12:05:41;;;;;;;6.55;5.70;;;;;24.50;97070.00;;;;8254830;28;20241;-69
2023/05/03 12:09:45;;;;;;;11.05;6.70;;;;;25.40;97067.00;;;;8256069;28;20194;-67
2023/05/03 12:14:13;;;;;;;8.98;6.63;;;;;25.60;97081.00;;;;8259062;28;20233;-67
2023/05/03 12:18:20;;;;;;;6.57;5.57;;;;;24.20;97078.00;;;;8251356;28;20203;-68
2023/05/03 12:22:30;;;;;;;6.43;5.57;;;;;22.80;97077.00;;;;8256682;28;20282;-68
2023/05/03 12:26:34;;;;;;;12.73;5.22;;;;;21.80;97074.00;;;;8254769;28;20230;-68
2023/05/03 12:30:39;;;;;;;9.55;6.20;;;;;21.10;97064.00;;;;8254620;28;20203;-69
2023/05/03 12:34:44;;;;;;;12.65;7.40;;;;;21.10;97056.00;;;;8250967;28;20199;-69
2023/05/03 12:39:06;;;;;;;10.15;7.28;;;;;21.20;97053.00;;;;8255779;28;20250;-68
2023/05/03 12:43:18;;;;;;;9.60;7.35;;;;;21.10;97059.00;;;;8249117;28;20206;-68
2023/05/03 12:47:23;;;;;;;8.55;6.55;;;;;20.80;97052.00;;;;8254664;28;20235;-68
2023/05/03 12:51:33;;;;;;;8.43;6.53;;;;;20.50;97056.00;;;;8252288;28;20211;-70
2023/05/03 12:55:40;;;;;;;11.25;7.25;;;;;20.40;97047.00;;;;8252447;28;20203;-71
2023/05/03 12:59:48;;;;;;;11.80;7.13;;;;;20.30;97041.00;;;;8255424;28;20595;-70
2023/05/03 13:04:07;;;;;;;9.15;6.60;;;;;20.50;97042.00;;;;8251112;28;20738;-70
2023/05/03 13:08:30;;;;;;;10.98;5.97;;;;;21.00;97041.00;;;;8249132;28;20246;-71
2023/05/03 13:12:39;;;;;;;7.40;6.03;;;;;21.60;97037.00;;;;8249165;28;20572;-71
2023/05/03 13:16:43;;;;;;;11.40;6.13;;;;;22.00;97033.00;;;;8246391;28;20203;-69
2023/05/03 13:20:49;;;;;;;9.52;6.53;;;;;22.10;97028.00;;;;8244659;28;20202;-71
2023/05/03 13:24:52;;;;;;;6.78;5.78;;;;;21.50;97026.00;;;;8251616;28;20603;-70
2023/05/03 13:28:57;;;;;;;9.10;5.93;;;;;21.10;97029.00;;;;8246999;28;20269;-70
2023/05/03 13:33:01;;;;;;;14.45;6.28;;;;;20.90;97018.00;;;;8248665;28;20526;-70
2023/05/03 13:37:06;;;;;;;9.23;6.05;;;;;20.70;97017.00;;;;8247420;28;20199;-70
2023/05/03 13:41:09;;;;;;;8.65;5.80;;;;;21.10;97015.00;;;;8245875;28;20245;-70
2023/05/03 13:45:15;;;;;;;7.25;5.30;;;;;22.40;97008.00;;;;8251282;28;20230;-70
2023/05/03 13:49:24;;;;;;;7.57;6.00;;;;;23.00;97008.00;;;;8244726;28;20207;-70
2023/05/03 13:53:34;;;;;;;6.25;5.47;;;;;23.60;97003.00;;;;8245004;28;20198;-70
2023/05/03 13:57:39;;;;;;;7.13;5.20;;;;;24.00;96988.00;;;;8243927;28;20199;-70
2023/05/03 14:01:46;;;;;;;8.35;5.22;;;;;24.30;96991.00;;;;8246788;28;20198;-70
2023/05/03 14:05:50;;;;;;;10.38;5.65;;;;;24.50;96998.00;;;;8248272;28;20235;-71
2023/05/03 14:09:53;;;;;;;5.97;4.70;;;;;25.10;96987.00;;;;8252088;28;20342;-70
2023/05/03 14:13:56;;;;;;;6.88;5.22;;;;;25.60;96988.00;;;;8250018;28;20198;-70
2023/05/03 14:18:02;;;;;;;9.35;5.95;;;;;26.20;96981.00;;;;8245431;28;20267;-70
2023/05/03 14:22:08;;;;;;;7.32;6.18;;;;;25.30;96983.00;;;;8241670;28;20198;-70
2023/05/03 14:26:12;;;;;;;8.75;5.97;;;;;24.50;96972.00;;;;8235625;28;20292;-70
2023/05/03 14:30:20;;;;;;;10.48;6.15;;;;;23.50;96975.00;;;;8250712;28;20260;-70
2023/05/03 14:34:30;;;;;;;7.65;5.70;;;;;23.20;96975.00;;;;8246110;28;20805;-70
2023/05/03 14:38:39;;;;;;;9.70;5.97;;;;;23.40;96967.00;;;;8251458;28;20198;-70
2023/05/03 14:42:43;;;;;;;6.53;5.55;;;;;23.70;96981.00;;;;8251221;28;20199;-70
2023/05/03 14:46:46;;;;;;;9.18;6.63;;;;;23.60;96981.00;;;;8252194;28;20246;-69
2023/05/03 14:50:51;;;;;;;5.80;5.20;;;;;23.30;96979.00;;;;8250293;28;20199;-70
2023/05/03 14:54:55;;;;;;;7.57;5.70;;;;;23.30;96979.00;;;;8252936;28;20702;-70
2023/05/03 14:58:59;;;;;;;9.27;5.43;;;;;23.40;96976.00;;;;8255170;28;20207;-69
2023/05/03 15:03:20;;;;;;;8.32;4.90;;;;;23.60;96976.00;;;;8245336;28;20230;-70
2023/05/03 15:07:26;;;;;;;5.55;4.90;;;;;23.40;96981.00;;;;8244188;28;20715;-70
2023/05/03 15:11:30;;;;;;;5.80;4.97;;;;;23.50;96986.00;;;;8250497;28;20203;-70
2023/05/03 15:15:33;;;;;;;6.20;4.50;;;;;23.40;96975.00;;;;8247334;28;20253;-69
2023/05/03 15:19:36;;;;;;;6.78;4.72;;;;;23.10;96975.00;;;;8249610;28;20233;-70
2023/05/03 15:23:41;;;;;;;5.53;4.25;;;;;22.50;96982.00;;;;8256006;28;20199;-70
2023/05/03 15:27:47;;;;;;;6.38;4.72;;;;;22.30;96973.00;;;;8252307;28;20894;-69
2023/05/03 15:31:54;;;;;;;12.45;4.95;;;;;22.20;96969.00;;;;8251560;28;20664;-69
2023/05/03 15:35:57;;;;;;;5.22;4.72;;;;;22.40;96968.00;;;;8253098;28;20195;-70
2023/05/03 15:40:12;;;;;;;5.47;4.95;;;;;22.30;96959.00;;;;8252541;28;20891;-69
2023/05/03 15:44:18;;;;;;;6.65;4.75;;;;;22.10;96962.00;;;;8257207;28;20199;-69
2023/05/03 15:48:21;;;;;;;6.95;4.70;;;;;22.00;96955.00;;;;8256851;28;20289;-69
2023/05/03 15:52:24;;;;;;;4.78;4.30;;;;;21.90;96961.00;;;;8255625;28;20205;-70
2023/05/03 15:56:29;;;;;;;6.93;4.93;;;;;21.90;96960.00;;;;8255547;28;20199;-70
2023/05/03 16:00:33;;;;;;;7.50;4.32;;;;;21.90;96967.00;;;;8251627;28;20199;-70
2023/05/03 16:04:37;;;;;;;4.53;4.00;;;;;22.10;96972.00;;;;8246719;28;20294;-70
2023/05/03 16:08:42;;;;;;;5.22;4.10;;;;;22.00;96981.00;;;;8251037;28;20226;-70
2023/05/03 16:12:47;;;;;;;5.65;4.35;;;;;21.90;96972.00;;;;8254921;28;20908;-70
2023/05/03 16:16:52;;;;;;;6.15;4.15;;;;;21.90;96979.00;;;;8252998;28;20210;-70
2023/05/03 16:20:56;;;;;;;5.22;4.13;;;;;22.10;96977.00;;;;8254197;28;20203;-70
2023/05/03 16:25:00;;;;;;;4.53;3.97;;;;;22.00;96968.00;;;;8255689;28;20680;-70
2023/05/03 16:29:07;;;;;;;7.60;4.35;;;;;22.00;96965.00;;;;8249188;28;20603;-71
2023/05/03 16:33:10;;;;;;;4.47;3.60;;;;;22.00;96955.00;;;;8247272;28;20262;-71
2023/05/03 16:37:16;;;;;;;3.65;3.33;;;;;21.90;96965.00;;;;8253103;28;20930;-71
2023/05/03 16:41:19;;;;;;;4.82;3.90;;;;;22.00;96967.00;;;;8255645;28;20246;-71
2023/05/03 16:45:26;;;;;;;4.35;3.50;;;;;22.00;96965.00;;;;8256089;28;20226;-71
2023/05/03 16:49:33;;;;;;;4.40;4.00;;;;;22.10;96966.00;;;;8253250;28;20233;-71
2023/05/03 16:53:38;;;;;;;4.35;3.28;;;;;22.10;96964.00;;;;8254023;28;20203;-71
2023/05/03 16:57:43;;;;;;;7.00;3.78;;;;;21.90;96969.00;;;;8258322;28;20253;-71
2023/05/03 17:01:49;;;;;;;4.35;3.13;;;;;22.00;96961.00;;;;8250081;28;20629;-71
2023/05/03 17:05:52;;;;;;;3.22;2.80;;;;;22.20;96963.00;;;;8255736;28;20223;-71
2023/05/03 17:09:59;;;;;;;4.60;3.10;;;;;22.10;96962.00;;;;8252049;28;20229;-72
2023/05/03 17:14:03;;;;;;;4.80;3.03;;;;;21.60;96961.00;;;;8254346;28;20221;-70
2023/05/03 17:18:08;;;;;;;4.78;2.85;;;;;21.60;96960.00;;;;8247428;28;20202;-72
2023/05/03 17:22:12;;;;;;;2.90;2.70;;;;;21.60;96964.00;;;;8251138;28;20203;-70
2023/05/03 17:26:15;;;;;;;3.10;2.90;;;;;21.60;96965.00;;;;8252845;28;20199;-70
2023/05/03 17:30:18;;;;;;;5.68;3.08;;;;;21.40;96959.00;;;;8255762;28;20611;-71
2023/05/03 17:34:24;;;;;;;8.95;3.90;;;;;21.00;96967.00;;;;8245363;28;20195;-71
2023/05/03 17:38:28;;;;;;;6.10;3.40;;;;;20.50;96969.00;;;;8247386;28;20199;-71
2023/05/03 17:42:32;;;;;;;4.93;3.08;;;;;19.90;96954.00;;;;8252061;28;20215;-71
2023/05/03 17:46:35;;;;;;;3.88;3.03;;;;;19.20;96957.00;;;;8248628;28;20207;-70
2023/05/03 17:50:40;;;;;;;6.68;3.28;;;;;18.50;96949.00;;;;8245285;28;21139;-70
2023/05/03 17:54:44;;;;;;;3.63;3.05;;;;;18.00;96957.00;;;;8246776;28;20238;-70
2023/05/03 17:58:49;;;;;;;5.05;3.13;;;;;17.60;96964.00;;;;8241738;28;20199;-70
2023/05/03 18:02:55;;;;;;;3.97;2.65;;;;;17.20;96960.00;;;;8248551;28;20227;-70
2023/05/03 18:06:59;;;;;;;6.05;3.00;;;;;16.90;96958.00;;;;8247825;28;20668;-71
2023/05/03 18:11:02;;;;;;;3.13;2.80;;;;;16.60;96956.00;;;;8254068;28;20194;-70
2023/05/03 18:15:23;;;;;;;5.15;3.35;;;;;16.30;96962.00;;;;8250330;28;20243;-71
2023/05/03 18:19:28;;;;;;;6.32;3.95;;;;;16.00;96961.00;;;;8247617;28;20203;-71
2023/05/03 18:23:34;;;;;;;6.80;3.95;;;;;15.70;96976.00;;;;8251895;28;20623;-71
2023/05/03 18:27:40;;;;;;;6.82;4.20;;;;;15.30;96974.00;;;;8250129;28;20223;-71
2023/05/03 18:31:46;;;;;;;5.63;3.10;;;;;15.10;96983.00;;;;8247589;28;20210;-71
2023/05/03 18:35:51;;;;;;;7.47;3.40;;;;;14.90;96975.00;;;;8246045;28;20195;-70
2023/05/03 18:39:55;;;;;;;5.88;4.13;;;;;14.70;96983.00;;;;8252118;28;20203;-70
2023/05/03 18:43:59;;;;;;;9.48;5.55;;;;;14.50;96985.00;;;;8249792;28;20935;-71
2023/05/03 18:48:05;;;;;;;4.55;3.60;;;;;14.40;96991.00;;;;8243508;28;21092;-71
2023/05/03 18:52:09;;;;;;;6.00;3.90;;;;;14.20;96984.00;;;;8250761;28;20202;-70
2023/05/03 18:56:39;;;;;;;8.35;4.82;;;;;14.10;96984.00;;;;8253437;28;20238;-71
2023/05/03 19:00:47;;;;;;;4.90;3.55;;;;;13.90;97005.00;;;;8248301;28;20824;-70
2023/05/03 19:04:53;;;;;;;10.45;4.00;;;;;13.80;97001.00;;;;8250374;28;20258;-70
2023/05/03 19:08:59;;;;;;;7.20;4.25;;;;;13.70;96997.00;;;;8249412;28;20443;-70
2023/05/03 19:13:04;;;;;;;7.72;3.80;;;;;13.60;97004.00;;;;8252515;28;20235;-71
2023/05/03 19:17:17;;;;;;;7.55;3.83;;;;;13.40;97005.00;;;;8250775;28;20210;-71
2023/05/03 19:21:21;;;;;;;8.30;4.28;;;;;13.30;97007.00;;;;8248323;28;20208;-71
2023/05/03 19:25:26;;;;;;;8.10;4.30;;;;;13.10;97006.00;;;;8263606;28;20211;-71
2023/05/03 19:29:36;;;;;;;5.20;4.05;;;;;13.00;97012.00;;;;8247342;28;21354;-69
2023/05/03 19:33:39;;;;;;;5.47;4.63;;;;;12.90;97006.00;;;;8245400;28;20353;-69
2023/05/03 19:37:43;;;;;;;6.75;4.15;;;;;12.80;97016.00;;;;8248983;28;20214;-72
2023/05/03 19:41:47;;;;;;;6.50;4.50;;;;;12.70;97010.00;;;;8250006;28;20200;-72
2023/05/03 19:45:52;;;;;;;10.07;4.40;;;;;12.60;97001.00;;;;8251041;28;20710;-70
2023/05/03 19:49:55;;;;;;;7.40;4.38;;;;;12.40;97002.00;;;;8246050;28;20283;-70
2023/05/03 19:54:03;;;;;;;10.40;4.55;;;;;12.20;97011.00;;;;8247885;28;20207;-68
2023/05/03 19:58:07;;;;;;;5.88;4.32;;;;;12.10;97008.00;;;;8253250;28;20205;-70
2023/05/03 20:02:18;;;;;;;8.57;4.60;;;;;11.90;97017.00;;;;8247592;28;20261;-71
2023/05/03 20:06:23;;;;;;;10.25;4.90;;;;;11.60;97014.00;;;;8252131;28;20648;-70
2023/05/03 20:10:26;;;;;;;8.10;4.72;;;;;11.40;97014.00;;;;8249971;28;20234;-70
2023/05/03 20:14:31;;;;;;;7.47;4.97;;;;;11.20;97015.00;;;;8240370;28;20602;-70
2023/05/03 20:18:35;;;;;;;6.78;5.05;;;;;11.00;97022.00;;;;8239882;28;20210;-70
2023/05/03 20:22:38;;;;;;;12.65;5.47;;;;;10.80;97014.00;;;;8252197;28;20238;-69